createdAt,value
2018-09-22T00:00:45.385Z,0.00
2018-09-22T00:01:45.284Z,0.00
2018-09-22T00:02:45.186Z,0.00
2018-09-22T00:03:45.085Z,0.00
2018-09-22T00:04:44.986Z,0.00
2018-09-22T00:05:44.876Z,0.00
2018-09-22T00:06:44.776Z,0.00
2018-09-22T00:07:44.676Z,0.00
2018-09-22T00:08:44.577Z,0.00
2018-09-22T00:09:44.477Z,0.00
2018-09-22T00:10:44.378Z,0.00
2018-09-22T00:11:44.267Z,0.00
2018-09-22T00:12:44.165Z,0.00
2018-09-22T00:13:44.065Z,0.00
2018-09-22T00:14:43.966Z,0.00
2018-09-22T00:15:43.867Z,0.00
2018-09-22T00:16:43.768Z,0.00
2018-09-22T00:17:43.657Z,0.00
2018-09-22T00:18:43.557Z,0.00
2018-09-22T00:19:43.457Z,0.00
2018-09-22T00:20:43.358Z,0.00
2018-09-22T00:21:43.262Z,0.00
2018-09-22T00:22:43.161Z,0.00
2018-09-22T00:23:43.060Z,0.00
2018-09-22T00:24:42.961Z,0.00
2018-09-22T00:25:42.848Z,0.00
2018-09-22T00:26:42.750Z,0.00
2018-09-22T00:27:42.651Z,0.00
2018-09-22T00:28:42.549Z,0.00
2018-09-22T00:29:42.439Z,0.00
2018-09-22T00:30:42.340Z,0.00
2018-09-22T00:31:42.240Z,0.00
2018-09-22T00:32:42.140Z,0.00
2018-09-22T00:33:42.041Z,0.00
2018-09-22T00:34:41.927Z,0.00
2018-09-22T00:35:41.830Z,0.00
2018-09-22T00:36:41.729Z,0.00
2018-09-22T00:37:41.629Z,0.00
2018-09-22T00:38:41.530Z,0.00
2018-09-22T00:39:41.430Z,0.00
2018-09-22T00:40:41.319Z,0.00
2018-09-22T00:41:41.220Z,0.00
2018-09-22T00:42:41.121Z,0.00
2018-09-22T00:43:41.020Z,0.00
2018-09-22T00:44:40.921Z,0.00
2018-09-22T00:45:40.810Z,0.00
2018-09-22T00:46:40.713Z,0.00
2018-09-22T00:47:40.610Z,0.00
2018-09-22T00:48:40.510Z,0.00
2018-09-22T00:49:40.412Z,0.00
2018-09-22T00:50:40.312Z,0.00
2018-09-22T00:51:40.213Z,0.00
2018-09-22T00:52:40.112Z,0.00
2018-09-22T00:53:40.002Z,0.00
2018-09-22T00:54:39.902Z,0.00
2018-09-22T00:55:39.803Z,0.00
2018-09-22T00:56:39.704Z,0.00
2018-09-22T00:57:39.604Z,0.00
2018-09-22T00:58:39.506Z,0.00
2018-09-22T00:59:39.393Z,0.00
2018-09-22T01:00:39.317Z,0.00
2018-09-22T01:01:39.194Z,0.00
2018-09-22T01:02:39.094Z,0.00
2018-09-22T01:03:38.994Z,0.00
2018-09-22T01:04:38.894Z,0.00
2018-09-22T01:05:38.784Z,0.00
2018-09-22T01:06:38.684Z,0.00
2018-09-22T01:07:38.585Z,0.00
2018-09-22T01:08:38.486Z,0.00
2018-09-22T01:09:38.386Z,0.00
2018-09-22T01:10:38.288Z,0.00
2018-09-22T01:11:38.176Z,0.00
2018-09-22T01:12:38.075Z,0.00
2018-09-22T01:13:37.974Z,0.00
2018-09-22T01:14:37.875Z,0.00
2018-09-22T01:15:37.795Z,0.00
2018-09-22T01:16:37.676Z,0.00
2018-09-22T01:17:37.565Z,0.00
2018-09-22T01:18:37.466Z,0.00
2018-09-22T01:19:37.366Z,0.00
2018-09-22T01:20:37.267Z,0.00
2018-09-22T01:21:37.167Z,0.00
2018-09-22T01:22:37.068Z,0.00
2018-09-22T01:23:36.957Z,0.00
2018-09-22T01:24:36.856Z,0.00
2018-09-22T01:25:36.756Z,0.00
2018-09-22T01:26:36.658Z,0.00
2018-09-22T01:27:36.558Z,0.00
2018-09-22T01:28:36.460Z,0.00
2018-09-22T01:29:36.347Z,0.00
2018-09-22T01:30:36.251Z,0.00
2018-09-22T01:31:36.149Z,0.00
2018-09-22T01:32:36.054Z,0.00
2018-09-22T01:33:35.948Z,0.00
2018-09-22T01:34:35.857Z,0.00
2018-09-22T01:35:35.737Z,0.00
2018-09-22T01:36:35.637Z,0.00
2018-09-22T01:37:35.538Z,0.00
2018-09-22T01:38:35.440Z,0.00
2018-09-22T01:39:35.339Z,0.00
2018-09-22T01:40:35.239Z,0.00
2018-09-22T01:41:35.141Z,0.00
2018-09-22T01:42:35.032Z,0.00
2018-09-22T01:43:34.929Z,0.00
2018-09-22T01:44:34.830Z,0.00
2018-09-22T01:45:34.731Z,0.00
2018-09-22T01:46:34.632Z,0.00
2018-09-22T01:47:34.519Z,0.00
2018-09-22T01:48:34.422Z,0.00
2018-09-22T01:49:34.320Z,0.00
2018-09-22T01:50:34.221Z,0.00
2018-09-22T01:51:34.122Z,0.00
2018-09-22T01:52:34.061Z,0.00
2018-09-22T01:53:33.911Z,0.00
2018-09-22T01:54:33.810Z,0.00
2018-09-22T01:55:33.712Z,0.00
2018-09-22T01:56:33.613Z,0.00
2018-09-22T01:57:33.512Z,0.00
2018-09-22T01:58:33.413Z,0.00
2018-09-22T01:59:33.301Z,0.00
2018-09-22T02:00:33.200Z,0.00
2018-09-22T02:01:33.101Z,0.00
2018-09-22T02:02:33.002Z,0.00
2018-09-22T02:03:32.903Z,0.00
2018-09-22T02:04:32.804Z,0.00
2018-09-22T02:05:32.692Z,0.00
2018-09-22T02:06:32.593Z,0.00
2018-09-22T02:07:32.493Z,0.00
2018-09-22T02:08:32.395Z,0.00
2018-09-22T02:09:32.294Z,0.00
2018-09-22T02:10:32.237Z,0.00
2018-09-22T02:11:32.083Z,0.00
2018-09-22T02:12:31.983Z,0.00
2018-09-22T02:13:31.883Z,0.00
2018-09-22T02:14:31.783Z,0.00
2018-09-22T02:15:31.687Z,0.00
2018-09-22T02:16:31.577Z,0.00
2018-09-22T02:17:31.474Z,0.00
2018-09-22T02:18:31.375Z,0.00
2018-09-22T02:19:31.275Z,0.00
2018-09-22T02:20:31.180Z,0.00
2018-09-22T02:21:31.064Z,0.00
2018-09-22T02:22:30.963Z,0.00
2018-09-22T02:23:30.863Z,0.00
2018-09-22T02:24:30.764Z,0.00
2018-09-22T02:25:30.665Z,0.00
2018-09-22T02:26:30.566Z,0.00
2018-09-22T02:27:30.456Z,0.00
2018-09-22T02:28:30.355Z,0.00
2018-09-22T02:29:30.256Z,0.00
2018-09-22T02:30:30.157Z,0.00
2018-09-22T02:31:30.057Z,0.00
2018-09-22T02:32:29.945Z,0.00
2018-09-22T02:33:29.845Z,0.00
2018-09-22T02:34:29.744Z,0.00
2018-09-22T02:35:29.646Z,0.00
2018-09-22T02:36:29.546Z,0.00
2018-09-22T02:37:29.434Z,0.00
2018-09-22T02:38:29.335Z,0.00
2018-09-22T02:39:29.237Z,0.00
2018-09-22T02:40:29.136Z,0.00
2018-09-22T02:41:29.038Z,0.00
2018-09-22T02:42:28.926Z,0.00
2018-09-22T02:43:28.825Z,0.00
2018-09-22T02:44:28.725Z,0.00
2018-09-22T02:45:28.626Z,0.00
2018-09-22T02:46:28.529Z,0.00
2018-09-22T02:47:28.429Z,0.00
2018-09-22T02:48:28.318Z,0.00
2018-09-22T02:49:28.220Z,0.00
2018-09-22T02:50:28.117Z,0.00
2018-09-22T02:51:28.017Z,0.00
2018-09-22T02:52:27.921Z,0.00
2018-09-22T02:53:27.805Z,0.00
2018-09-22T02:54:27.707Z,0.00
2018-09-22T02:55:27.607Z,0.00
2018-09-22T02:56:27.510Z,0.00
2018-09-22T02:57:27.411Z,0.00
2018-09-22T02:58:27.299Z,0.00
2018-09-22T02:59:27.198Z,0.00
2018-09-22T03:00:27.098Z,0.00
2018-09-22T03:01:27.004Z,0.00
2018-09-22T03:02:26.899Z,0.00
2018-09-22T03:03:26.788Z,0.00
2018-09-22T03:04:26.687Z,0.00
2018-09-22T03:05:26.587Z,0.00
2018-09-22T03:06:26.488Z,0.00
2018-09-22T03:07:26.389Z,0.00
2018-09-22T03:08:26.291Z,0.00
2018-09-22T03:09:26.179Z,0.00
2018-09-22T03:10:26.105Z,0.00
2018-09-22T03:11:25.978Z,0.00
2018-09-22T03:12:25.880Z,0.00
2018-09-22T03:13:25.769Z,0.00
2018-09-22T03:14:25.667Z,0.00
2018-09-22T03:15:25.650Z,0.00
2018-09-22T03:16:25.469Z,0.00
2018-09-22T03:17:25.369Z,0.00
2018-09-22T03:18:25.273Z,0.00
2018-09-22T03:19:25.162Z,0.00
2018-09-22T03:20:25.063Z,0.00
2018-09-22T03:21:24.959Z,0.00
2018-09-22T03:22:24.860Z,0.00
2018-09-22T03:23:24.760Z,0.00
2018-09-22T03:24:24.663Z,0.00
2018-09-22T03:25:24.548Z,0.00
2018-09-22T03:26:24.449Z,0.00
2018-09-22T03:27:24.351Z,0.00
2018-09-22T03:28:24.250Z,0.00
2018-09-22T03:29:24.151Z,0.00
2018-09-22T03:30:24.043Z,0.00
2018-09-22T03:31:23.941Z,0.00
2018-09-22T03:32:23.842Z,0.00
2018-09-22T03:33:23.742Z,0.00
2018-09-22T03:34:23.642Z,0.00
2018-09-22T03:35:23.542Z,0.00
2018-09-22T03:36:23.435Z,0.00
2018-09-22T03:37:23.331Z,0.00
2018-09-22T03:38:23.233Z,0.00
2018-09-22T03:39:23.133Z,0.00
2018-09-22T03:40:23.032Z,0.00
2018-09-22T03:41:22.922Z,0.00
2018-09-22T03:42:22.822Z,0.00
2018-09-22T03:43:22.726Z,0.00
2018-09-22T03:44:22.622Z,0.00
2018-09-22T03:45:22.523Z,0.00
2018-09-22T03:46:22.424Z,0.00
2018-09-22T03:47:22.313Z,0.00
2018-09-22T03:48:22.211Z,0.00
2018-09-22T03:49:22.113Z,0.00
2018-09-22T03:50:22.012Z,0.00
2018-09-22T03:51:21.917Z,0.00
2018-09-22T03:52:21.802Z,0.00
2018-09-22T03:53:21.703Z,0.00
2018-09-22T03:54:21.603Z,0.00
2018-09-22T03:55:21.503Z,0.00
2018-09-22T03:56:21.404Z,0.00
2018-09-22T03:57:21.292Z,0.00
2018-09-22T03:58:21.191Z,0.00
2018-09-22T03:59:21.094Z,0.00
2018-09-22T04:00:21.002Z,0.00
2018-09-22T04:01:20.894Z,0.00
2018-09-22T04:02:20.783Z,0.00
2018-09-22T04:03:20.683Z,0.00
2018-09-22T04:04:20.583Z,0.00
2018-09-22T04:05:20.484Z,0.00
2018-09-22T04:06:20.384Z,0.00
2018-09-22T04:07:20.273Z,0.00
2018-09-22T04:08:20.172Z,0.00
2018-09-22T04:09:20.073Z,0.00
2018-09-22T04:10:19.973Z,0.00
2018-09-22T04:11:19.874Z,0.00
2018-09-22T04:12:19.764Z,0.00
2018-09-22T04:13:19.664Z,0.00
2018-09-22T04:14:19.564Z,0.00
2018-09-22T04:15:19.467Z,0.00
2018-09-22T04:16:19.365Z,0.00
2018-09-22T04:17:19.254Z,0.00
2018-09-22T04:18:19.154Z,0.00
2018-09-22T04:19:19.057Z,0.00
2018-09-22T04:20:18.954Z,0.00
2018-09-22T04:21:18.844Z,0.00
2018-09-22T04:22:18.743Z,4.00
2018-09-22T04:23:18.645Z,4.00
2018-09-22T04:24:18.544Z,4.00
2018-09-22T04:25:18.446Z,4.00
2018-09-22T04:26:18.333Z,4.00
2018-09-22T04:27:18.234Z,8.00
2018-09-22T04:28:18.135Z,4.00
2018-09-22T04:29:18.034Z,8.00
2018-09-22T04:30:17.923Z,8.00
2018-09-22T04:31:17.823Z,12.00
2018-09-22T04:32:17.724Z,16.00
2018-09-22T04:33:17.675Z,16.00
2018-09-22T04:34:17.525Z,20.00
2018-09-22T04:35:17.425Z,24.00
2018-09-22T04:36:17.327Z,28.00
2018-09-22T04:37:17.216Z,36.00
2018-09-22T04:38:17.114Z,40.00
2018-09-22T04:39:17.004Z,40.00
2018-09-22T04:40:16.904Z,40.00
2018-09-22T04:41:16.805Z,52.00
2018-09-22T04:42:16.704Z,64.00
2018-09-22T04:43:16.604Z,80.00
2018-09-22T04:44:16.493Z,84.00
2018-09-22T04:45:16.393Z,92.00
2018-09-22T04:46:16.296Z,100.00
2018-09-22T04:47:16.196Z,104.00
2018-09-22T04:48:16.083Z,112.00
2018-09-22T04:49:15.984Z,108.00
2018-09-22T04:50:15.889Z,100.00
2018-09-22T04:51:15.786Z,92.00
2018-09-22T04:52:15.697Z,100.00
2018-09-22T04:53:15.573Z,104.00
2018-09-22T04:54:15.474Z,148.00
2018-09-22T04:55:15.378Z,200.00
2018-09-22T04:56:15.275Z,228.00
2018-09-22T04:57:15.175Z,216.00
2018-09-22T04:58:15.065Z,216.00
2018-09-22T04:59:14.968Z,240.00
2018-09-22T05:00:14.865Z,300.00
2018-09-22T05:01:14.765Z,292.00
2018-09-22T05:02:14.655Z,244.00
2018-09-22T05:03:14.554Z,184.00
2018-09-22T05:04:14.454Z,264.00
2018-09-22T05:05:14.355Z,308.00
2018-09-22T05:06:14.256Z,308.00
2018-09-22T05:07:14.156Z,412.00
2018-09-22T05:08:14.044Z,500.00
2018-09-22T05:09:13.945Z,472.00
2018-09-22T05:10:13.847Z,572.00
2018-09-22T05:11:13.747Z,588.00
2018-09-22T05:12:13.647Z,476.00
2018-09-22T05:13:13.534Z,468.00
2018-09-22T05:14:13.435Z,512.00
2018-09-22T05:15:13.334Z,404.00
2018-09-22T05:16:13.236Z,316.00
2018-09-22T05:17:13.219Z,328.00
2018-09-22T05:18:13.036Z,376.00
2018-09-22T05:19:12.928Z,388.00
2018-09-22T05:20:12.826Z,312.00
2018-09-22T05:21:12.727Z,300.00
2018-09-22T05:22:12.627Z,316.00
2018-09-22T05:23:12.528Z,340.00
2018-09-22T05:24:12.418Z,304.00
2018-09-22T05:25:12.316Z,456.00
2018-09-22T05:26:12.217Z,484.00
2018-09-22T05:27:12.122Z,524.00
2018-09-22T05:28:12.017Z,412.00
2018-09-22T05:29:11.918Z,392.00
2018-09-22T05:30:11.808Z,392.00
2018-09-22T05:31:11.707Z,364.00
2018-09-22T05:32:11.608Z,304.00
2018-09-22T05:33:11.509Z,320.00
2018-09-22T05:34:11.409Z,340.00
2018-09-22T05:35:11.312Z,360.00
2018-09-22T05:36:11.197Z,280.00
2018-09-22T05:37:11.099Z,392.00
2018-09-22T05:38:10.998Z,356.00
2018-09-22T05:39:10.898Z,408.00
2018-09-22T05:40:10.799Z,532.00
2018-09-22T05:41:10.687Z,560.00
2018-09-22T05:42:10.589Z,512.00
2018-09-22T05:43:10.491Z,456.00
2018-09-22T05:44:10.393Z,516.00
2018-09-22T05:45:10.290Z,496.00
2018-09-22T05:46:10.179Z,572.00
2018-09-22T05:47:10.078Z,548.00
2018-09-22T05:48:09.980Z,412.00
2018-09-22T05:49:09.879Z,392.00
2018-09-22T05:50:09.779Z,364.00
2018-09-22T05:51:09.681Z,444.00
2018-09-22T05:52:09.569Z,588.00
2018-09-22T05:53:09.469Z,676.00
2018-09-22T05:54:09.374Z,964.00
2018-09-22T05:55:09.270Z,1484.00
2018-09-22T05:56:09.171Z,1532.00
2018-09-22T05:57:09.060Z,1052.00
2018-09-22T05:58:08.974Z,1948.00
2018-09-22T05:59:08.859Z,1260.00
2018-09-22T06:00:08.760Z,948.00
2018-09-22T06:01:08.662Z,1412.00
2018-09-22T06:02:08.561Z,1368.00
2018-09-22T06:03:08.451Z,1548.00
2018-09-22T06:04:08.351Z,1008.00
2018-09-22T06:05:08.252Z,1064.00
2018-09-22T06:06:08.152Z,1672.00
2018-09-22T06:07:08.053Z,1372.00
2018-09-22T06:08:07.941Z,1136.00
2018-09-22T06:09:07.840Z,1500.00
2018-09-22T06:10:07.742Z,2164.00
2018-09-22T06:11:07.642Z,2456.00
2018-09-22T06:12:07.552Z,2696.00
2018-09-22T06:13:07.442Z,1944.00
2018-09-22T06:14:07.332Z,1628.00
2018-09-22T06:15:07.232Z,2272.00
2018-09-22T06:16:07.132Z,2368.00
2018-09-22T06:17:07.034Z,2656.00
2018-09-22T06:18:06.934Z,2736.00
2018-09-22T06:19:06.835Z,2468.00
2018-09-22T06:20:06.722Z,3672.00
2018-09-22T06:21:06.623Z,4468.00
2018-09-22T06:22:06.525Z,4048.00
2018-09-22T06:23:06.463Z,4252.00
2018-09-22T06:24:06.324Z,4608.00
2018-09-22T06:25:06.225Z,5292.00
2018-09-22T06:26:06.113Z,4936.00
2018-09-22T06:27:06.014Z,4604.00
2018-09-22T06:28:05.914Z,4244.00
2018-09-22T06:29:05.815Z,4432.00
2018-09-22T06:30:05.715Z,4040.00
2018-09-22T06:31:05.617Z,4432.00
2018-09-22T06:32:05.516Z,4848.00
2018-09-22T06:33:05.404Z,4832.00
2018-09-22T06:34:05.309Z,4876.00
2018-09-22T06:35:05.204Z,5724.00
2018-09-22T06:36:05.106Z,5212.00
2018-09-22T06:37:05.006Z,4324.00
2018-09-22T06:38:04.907Z,3852.00
2018-09-22T06:39:04.807Z,5228.00
2018-09-22T06:40:04.707Z,6620.00
2018-09-22T06:41:04.608Z,5000.00
2018-09-22T06:42:04.512Z,4224.00
2018-09-22T06:43:04.409Z,4508.00
2018-09-22T06:44:04.298Z,4780.00
2018-09-22T06:45:04.199Z,6188.00
2018-09-22T06:46:04.150Z,7736.00
2018-09-22T06:47:04.000Z,12144.00
2018-09-22T06:48:03.905Z,7268.00
2018-09-22T06:49:03.789Z,5948.00
2018-09-22T06:50:03.688Z,6696.00
2018-09-22T06:51:03.589Z,8788.00
2018-09-22T06:52:03.503Z,7112.00
2018-09-22T06:53:03.403Z,6028.00
2018-09-22T06:54:03.303Z,6436.00
2018-09-22T06:55:03.193Z,6028.00
2018-09-22T06:56:03.091Z,6816.00
2018-09-22T06:57:02.995Z,8012.00
2018-09-22T06:58:02.893Z,8796.00
2018-09-22T06:59:02.793Z,7192.00
2018-09-22T07:00:02.694Z,7392.00
2018-09-22T07:01:02.583Z,7128.00
2018-09-22T07:02:02.483Z,7880.00
2018-09-22T07:03:02.409Z,7400.00
2018-09-22T07:04:02.288Z,6588.00
2018-09-22T07:05:02.186Z,4532.00
2018-09-22T07:06:02.086Z,5580.00
2018-09-22T07:07:01.987Z,4696.00
2018-09-22T07:08:01.888Z,5060.00
2018-09-22T07:09:01.787Z,4336.00
2018-09-22T07:10:01.689Z,5388.00
2018-09-22T07:11:01.589Z,8576.00
2018-09-22T07:12:01.490Z,8296.00
2018-09-22T07:13:01.392Z,9440.00
2018-09-22T07:14:01.290Z,9072.00
2018-09-22T07:15:01.191Z,9524.00
2018-09-22T07:16:01.093Z,5880.00
2018-09-22T07:17:00.993Z,5548.00
2018-09-22T07:18:00.893Z,6756.00
2018-09-22T07:19:00.792Z,6372.00
2018-09-22T07:20:00.681Z,7012.00
2018-09-22T07:21:00.581Z,6996.00
2018-09-22T07:22:00.482Z,8004.00
2018-09-22T07:23:00.385Z,6380.00
2018-09-22T07:24:00.283Z,8496.00
2018-09-22T07:25:00.184Z,7720.00
2018-09-22T07:26:00.084Z,9356.00
2018-09-22T07:26:59.985Z,9516.00
2018-09-22T07:27:59.887Z,8432.00
2018-09-22T07:28:59.786Z,6100.00
2018-09-22T07:29:59.689Z,5112.00
2018-09-22T07:30:59.647Z,5260.00
2018-09-22T07:31:59.487Z,6152.00
2018-09-22T07:32:59.388Z,8772.00
2018-09-22T07:33:59.288Z,7800.00
2018-09-22T07:34:59.190Z,11216.00
2018-09-22T07:35:59.092Z,8568.00
2018-09-22T07:36:58.990Z,9436.00
2018-09-22T07:37:58.890Z,7256.00
2018-09-22T07:38:58.791Z,6640.00
2018-09-22T07:39:58.692Z,6232.00
2018-09-22T07:40:58.592Z,8084.00
2018-09-22T07:41:58.492Z,7816.00
2018-09-22T07:42:58.393Z,10004.00
2018-09-22T07:43:58.294Z,12344.00
2018-09-22T07:44:58.194Z,12400.00
2018-09-22T07:45:58.094Z,8676.00
2018-09-22T07:46:58.000Z,6120.00
2018-09-22T07:47:57.896Z,7820.00
2018-09-22T07:48:57.796Z,8168.00
2018-09-22T07:49:57.697Z,10088.00
2018-09-22T07:50:57.598Z,11652.00
2018-09-22T07:51:57.499Z,12744.00
2018-09-22T07:52:57.399Z,11264.00
2018-09-22T07:53:57.299Z,12548.00
2018-09-22T07:54:57.199Z,10208.00
2018-09-22T07:55:57.101Z,8140.00
2018-09-22T07:56:57.002Z,7824.00
2018-09-22T07:57:56.902Z,8444.00
2018-09-22T07:58:56.802Z,6684.00
2018-09-22T07:59:56.704Z,9612.00
2018-09-22T08:00:56.604Z,9440.00
2018-09-22T08:01:56.506Z,9204.00
2018-09-22T08:02:56.418Z,10924.00
2018-09-22T08:03:56.319Z,6188.00
2018-09-22T08:04:56.219Z,5212.00
2018-09-22T08:05:56.120Z,5164.00
2018-09-22T08:06:56.021Z,8312.00
2018-09-22T08:07:55.921Z,11816.00
2018-09-22T08:08:55.822Z,13912.00
2018-09-22T08:09:55.722Z,9608.00
2018-09-22T08:10:55.623Z,6052.00
2018-09-22T08:11:55.523Z,9100.00
2018-09-22T08:12:55.424Z,11724.00
2018-09-22T08:13:55.325Z,14524.00
2018-09-22T08:14:55.225Z,8840.00
2018-09-22T08:15:55.127Z,8836.00
2018-09-22T08:16:55.026Z,11640.00
2018-09-22T08:17:54.926Z,12216.00
2018-09-22T08:18:54.827Z,13620.00
2018-09-22T08:19:54.727Z,12048.00
2018-09-22T08:20:54.627Z,12572.00
2018-09-22T08:21:54.530Z,14688.00
2018-09-22T08:22:54.441Z,13748.00
2018-09-22T08:23:54.342Z,12332.00
2018-09-22T08:24:54.244Z,12592.00
2018-09-22T08:25:54.143Z,10740.00
2018-09-22T08:26:54.051Z,8684.00
2018-09-22T08:27:53.944Z,11712.00
2018-09-22T08:28:53.844Z,11020.00
2018-09-22T08:29:53.745Z,11580.00
2018-09-22T08:30:53.646Z,13180.00
2018-09-22T08:31:53.547Z,14692.00
2018-09-22T08:32:53.446Z,16116.00
2018-09-22T08:33:53.348Z,11104.00
2018-09-22T08:34:53.250Z,9812.00
2018-09-22T08:35:53.164Z,10036.00
2018-09-22T08:36:53.177Z,12864.00
2018-09-22T08:37:52.963Z,11628.00
2018-09-22T08:38:52.864Z,7480.00
2018-09-22T08:39:52.765Z,8704.00
2018-09-22T08:40:52.664Z,9152.00
2018-09-22T08:41:52.565Z,14448.00
2018-09-22T08:42:52.466Z,9540.00
2018-09-22T08:43:52.417Z,6860.00
2018-09-22T08:44:52.323Z,5868.00
2018-09-22T08:45:52.168Z,8040.00
2018-09-22T08:46:52.081Z,8240.00
2018-09-22T08:47:51.981Z,7988.00
2018-09-22T08:48:51.882Z,7448.00
2018-09-22T08:49:51.787Z,11920.00
2018-09-22T08:50:51.682Z,12948.00
2018-09-22T08:51:51.584Z,16404.00
2018-09-22T08:52:51.483Z,17152.00
2018-09-22T08:53:51.383Z,12004.00
2018-09-22T08:54:51.283Z,8268.00
2018-09-22T08:55:51.186Z,9840.00
2018-09-22T08:56:51.086Z,11828.00
2018-09-22T08:57:51.005Z,10020.00
2018-09-22T08:58:50.900Z,6860.00
2018-09-22T08:59:50.800Z,9664.00
2018-09-22T09:00:50.701Z,12868.00
2018-09-22T09:01:50.601Z,15320.00
2018-09-22T09:02:50.502Z,11988.00
2018-09-22T09:03:50.402Z,15540.00
2018-09-22T09:04:50.306Z,15104.00
2018-09-22T09:05:50.220Z,12536.00
2018-09-22T09:06:50.117Z,11748.00
2018-09-22T09:07:50.017Z,14692.00
2018-09-22T09:08:49.917Z,6944.00
2018-09-22T09:09:49.817Z,8280.00
2018-09-22T09:10:49.718Z,9712.00
2018-09-22T09:11:49.618Z,10256.00
2018-09-22T09:12:49.520Z,6968.00
2018-09-22T09:13:49.460Z,7588.00
2018-09-22T09:14:49.336Z,10220.00
2018-09-22T09:15:49.234Z,11576.00
2018-09-22T09:16:49.134Z,9956.00
2018-09-22T09:17:49.035Z,7520.00
2018-09-22T09:18:48.937Z,10172.00
2018-09-22T09:19:48.836Z,10768.00
2018-09-22T09:20:48.737Z,6732.00
2018-09-22T09:21:48.649Z,7052.00
2018-09-22T09:22:48.550Z,6916.00
2018-09-22T09:23:48.451Z,8664.00
2018-09-22T09:24:48.352Z,12056.00
2018-09-22T09:25:48.252Z,10264.00
2018-09-22T09:26:48.153Z,9764.00
2018-09-22T09:27:48.059Z,10908.00
2018-09-22T09:28:47.966Z,8292.00
2018-09-22T09:29:47.867Z,10160.00
2018-09-22T09:30:47.768Z,16572.00
2018-09-22T09:31:47.669Z,14408.00
2018-09-22T09:32:47.573Z,12880.00
2018-09-22T09:33:47.470Z,12180.00
2018-09-22T09:34:47.371Z,7812.00
2018-09-22T09:35:47.283Z,7136.00
2018-09-22T09:36:47.182Z,9176.00
2018-09-22T09:37:47.084Z,12328.00
2018-09-22T09:38:46.983Z,9024.00
2018-09-22T09:39:46.888Z,11268.00
2018-09-22T09:40:46.786Z,13984.00
2018-09-22T09:41:46.687Z,13268.00
2018-09-22T09:42:46.590Z,11736.00
2018-09-22T09:43:46.557Z,15024.00
2018-09-22T09:44:46.401Z,10956.00
2018-09-22T09:45:46.302Z,6720.00
2018-09-22T09:46:46.202Z,7240.00
2018-09-22T09:47:46.104Z,8480.00
2018-09-22T09:48:46.003Z,9904.00
2018-09-22T09:49:45.904Z,10840.00
2018-09-22T09:50:45.815Z,12772.00
2018-09-22T09:51:45.716Z,10592.00
2018-09-22T09:52:45.618Z,6876.00
2018-09-22T09:53:45.517Z,7232.00
2018-09-22T09:54:45.474Z,12200.00
2018-09-22T09:55:45.319Z,9660.00
2018-09-22T09:56:45.219Z,6464.00
2018-09-22T09:57:45.133Z,9320.00
2018-09-22T09:58:45.035Z,13732.00
2018-09-22T09:59:44.934Z,16304.00
2018-09-22T10:00:44.837Z,17060.00
2018-09-22T10:01:44.735Z,16112.00
2018-09-22T10:02:44.634Z,10820.00
2018-09-22T10:03:44.540Z,6952.00
2018-09-22T10:04:44.439Z,5404.00
2018-09-22T10:05:44.352Z,6508.00
2018-09-22T10:06:44.250Z,7616.00
2018-09-22T10:07:44.150Z,9500.00
2018-09-22T10:08:44.051Z,10996.00
2018-09-22T10:09:43.952Z,15464.00
2018-09-22T10:10:43.853Z,16264.00
2018-09-22T10:11:43.815Z,13900.00
2018-09-22T10:12:43.666Z,11236.00
2018-09-22T10:13:43.567Z,9704.00
2018-09-22T10:14:43.470Z,10204.00
2018-09-22T10:15:43.368Z,13564.00
2018-09-22T10:16:43.268Z,11704.00
2018-09-22T10:17:43.171Z,11300.00
2018-09-22T10:18:43.083Z,12220.00
2018-09-22T10:19:42.981Z,13156.00
2018-09-22T10:20:42.882Z,12556.00
2018-09-22T10:21:42.784Z,13440.00
2018-09-22T10:22:42.685Z,13920.00
2018-09-22T10:23:42.585Z,14440.00
2018-09-22T10:24:42.497Z,12584.00
2018-09-22T10:25:42.399Z,10164.00
2018-09-22T10:26:42.300Z,8024.00
2018-09-22T10:27:42.200Z,6112.00
2018-09-22T10:28:42.166Z,4696.00
2018-09-22T10:29:42.009Z,4296.00
2018-09-22T10:30:41.913Z,3704.00
2018-09-22T10:31:41.813Z,3236.00
2018-09-22T10:32:41.715Z,3624.00
2018-09-22T10:33:41.614Z,5372.00
2018-09-22T10:34:41.515Z,8344.00
2018-09-22T10:35:41.417Z,11000.00
2018-09-22T10:36:41.318Z,13812.00
2018-09-22T10:37:41.229Z,17016.00
2018-09-22T10:38:41.130Z,16844.00
2018-09-22T10:39:41.036Z,17020.00
2018-09-22T10:40:40.932Z,15984.00
2018-09-22T10:41:40.832Z,12888.00
2018-09-22T10:42:40.734Z,9688.00
2018-09-22T10:43:40.647Z,6232.00
2018-09-22T10:44:40.546Z,5444.00
2018-09-22T10:45:40.446Z,5708.00
2018-09-22T10:46:40.347Z,5920.00
2018-09-22T10:47:40.248Z,7276.00
2018-09-22T10:48:40.150Z,9648.00
2018-09-22T10:49:40.050Z,10176.00
2018-09-22T10:50:39.964Z,8404.00
2018-09-22T10:51:39.863Z,11512.00
2018-09-22T10:52:39.806Z,11724.00
2018-09-22T10:53:39.664Z,12876.00
2018-09-22T10:54:39.565Z,13000.00
2018-09-22T10:55:39.466Z,12236.00
2018-09-22T10:56:39.378Z,11888.00
2018-09-22T10:57:39.278Z,13204.00
2018-09-22T10:58:39.181Z,15404.00
2018-09-22T10:59:39.080Z,15732.00
2018-09-22T11:00:38.980Z,14944.00
2018-09-22T11:01:38.882Z,14760.00
2018-09-22T11:02:38.795Z,14944.00
2018-09-22T11:03:38.696Z,15540.00
2018-09-22T11:04:38.596Z,15784.00
2018-09-22T11:05:38.496Z,13352.00
2018-09-22T11:06:38.397Z,11024.00
2018-09-22T11:07:38.297Z,13860.00
2018-09-22T11:08:38.210Z,17004.00
2018-09-22T11:09:38.111Z,17472.00
2018-09-22T11:10:38.011Z,15656.00
2018-09-22T11:11:37.913Z,16000.00
2018-09-22T11:12:37.814Z,16272.00
2018-09-22T11:13:37.726Z,13976.00
2018-09-22T11:14:37.630Z,9760.00
2018-09-22T11:15:37.528Z,7552.00
2018-09-22T11:16:37.428Z,8464.00
2018-09-22T11:17:37.328Z,12048.00
2018-09-22T11:18:37.241Z,14160.00
2018-09-22T11:19:37.154Z,13100.00
2018-09-22T11:20:37.056Z,10616.00
2018-09-22T11:21:36.945Z,10608.00
2018-09-22T11:22:36.843Z,14084.00
2018-09-22T11:23:36.757Z,12592.00
2018-09-22T11:24:36.659Z,13068.00
2018-09-22T11:25:36.558Z,15144.00
2018-09-22T11:26:36.461Z,17824.00
2018-09-22T11:27:36.362Z,15024.00
2018-09-22T11:28:36.272Z,15840.00
2018-09-22T11:29:36.174Z,17280.00
2018-09-22T11:30:36.075Z,21568.00
2018-09-22T11:31:35.973Z,22432.00
2018-09-22T11:32:35.886Z,20864.00
2018-09-22T11:33:35.788Z,18112.00
2018-09-22T11:34:35.688Z,13856.00
2018-09-22T11:35:35.589Z,11316.00
2018-09-22T11:36:35.489Z,9176.00
2018-09-22T11:37:35.401Z,9996.00
2018-09-22T11:38:35.303Z,13084.00
2018-09-22T11:39:35.211Z,14352.00
2018-09-22T11:40:35.103Z,13624.00
2018-09-22T11:41:35.017Z,13448.00
2018-09-22T11:42:34.917Z,13856.00
2018-09-22T11:43:34.818Z,11928.00
2018-09-22T11:44:34.720Z,9956.00
2018-09-22T11:45:34.631Z,9876.00
2018-09-22T11:46:34.531Z,11856.00
2018-09-22T11:47:34.445Z,14684.00
2018-09-22T11:48:34.332Z,13408.00
2018-09-22T11:49:34.236Z,13404.00
2018-09-22T11:50:34.146Z,13368.00
2018-09-22T11:51:34.048Z,14092.00
2018-09-22T11:52:33.951Z,12984.00
2018-09-22T11:53:33.853Z,11892.00
2018-09-22T11:54:33.761Z,12320.00
2018-09-22T11:55:33.662Z,9172.00
2018-09-22T11:56:33.591Z,6416.00
2018-09-22T11:57:33.466Z,5328.00
2018-09-22T11:58:33.364Z,5092.00
2018-09-22T11:59:33.278Z,5640.00
2018-09-22T12:00:33.178Z,7232.00
2018-09-22T12:01:33.078Z,7712.00
2018-09-22T12:02:32.979Z,8276.00
2018-09-22T12:03:32.879Z,9272.00
2018-09-22T12:04:32.793Z,10792.00
2018-09-22T12:05:32.692Z,11492.00
2018-09-22T12:06:32.678Z,9728.00
2018-09-22T12:07:32.495Z,9516.00
2018-09-22T12:08:32.395Z,9428.00
2018-09-22T12:09:32.308Z,8048.00
2018-09-22T12:10:32.208Z,6896.00
2018-09-22T12:11:32.109Z,5840.00
2018-09-22T12:12:32.010Z,5576.00
2018-09-22T12:13:31.910Z,6952.00
2018-09-22T12:14:31.822Z,6972.00
2018-09-22T12:15:31.723Z,5808.00
2018-09-22T12:16:31.625Z,5492.00
2018-09-22T12:17:31.524Z,7612.00
2018-09-22T12:18:31.426Z,9692.00
2018-09-22T12:19:31.328Z,9024.00
2018-09-22T12:20:31.239Z,7188.00
2018-09-22T12:21:31.141Z,6148.00
2018-09-22T12:22:31.041Z,5332.00
2018-09-22T12:23:30.941Z,5120.00
2018-09-22T12:24:30.844Z,4896.00
2018-09-22T12:25:30.753Z,4788.00
2018-09-22T12:26:30.654Z,4848.00
2018-09-22T12:27:30.555Z,5020.00